TimeEDT,TemperatureF,Dew PointF,Humidity,Sea Level PressureIn,VisibilityMPH,Wind Direction,Wind SpeedMPH,Gust SpeedMPH,PrecipitationIn,Events,Conditions,WindDirDegrees,DateUTC
12:53 AM,35.1,30.0,82,30.10,10.0,Calm,Calm,-,N/A,,Clear,0,2012-10-12 04:53:00
1:53 AM,37.0,32.0,82,30.09,10.0,Calm,Calm,-,N/A,,Clear,0,2012-10-12 05:53:00
2:53 AM,45.0,33.1,63,30.06,10.0,Variable,3.5,-,N/A,,Mostly Cloudy,0,2012-10-12 06:53:00
4:53 AM,48.0,32.0,54,30.06,10.0,West,3.5,-,N/A,,Overcast,260,2012-10-12 08:53:00
5:53 AM,46.0,37.9,73,30.10,10.0,North,11.5,20.7,0.00,Rain,Light Rain,350,2012-10-12 09:53:00
6:53 AM,43.0,37.0,80,30.14,10.0,Variable,4.6,-,0.01,Rain,Light Rain,0,2012-10-12 10:53:00
7:53 AM,43.0,37.0,80,30.16,10.0,West,3.5,-,0.00,,Overcast,280,2012-10-12 11:53:00
8:53 AM,43.0,37.0,80,30.21,10.0,West,5.8,-,N/A,,Overcast,270,2012-10-12 12:53:00
9:44 AM,44.6,37.4,76,30.21,10.0,Variable,5.8,-,N/A,,Mostly Cloudy,0,2012-10-12 13:44:00
9:53 AM,45.0,37.0,74,30.23,10.0,West,6.9,-,N/A,,Mostly Cloudy,280,2012-10-12 13:53:00
10:04 AM,44.6,35.6,71,30.21,10.0,WNW,10.4,18.4,N/A,,Scattered Clouds,290,2012-10-12 14:04:00
10:53 AM,46.9,32.0,56,30.24,10.0,NW,17.3,23.0,N/A,,Partly Cloudy,310,2012-10-12 14:53:00
11:53 AM,44.1,35.1,71,30.28,10.0,WNW,8.1,18.4,0.00,,Overcast,300,2012-10-12 15:53:00
12:53 PM,44.1,32.0,63,30.30,10.0,NNW,9.2,19.6,0.01,Rain,Light Rain,340,2012-10-12 16:53:00
1:53 PM,48.9,28.9,46,30.31,10.0,North,21.9,25.3,0.00,,Scattered Clouds,10,2012-10-12 17:53:00
2:53 PM,48.0,25.0,41,30.31,10.0,North,9.2,21.9,N/A,,Scattered Clouds,350,2012-10-12 18:53:00
3:53 PM,48.9,25.0,39,30.32,10.0,NW,10.4,19.6,N/A,,Partly Cloudy,320,2012-10-12 19:53:00
4:53 PM,46.9,25.0,42,30.34,10.0,North,8.1,-,N/A,,Partly Cloudy,360,2012-10-12 20:53:00
5:53 PM,44.1,21.0,40,30.38,10.0,NNW,11.5,17.3,N/A,,Clear,340,2012-10-12 21:53:00
6:53 PM,37.9,21.9,53,30.40,10.0,NNE,5.8,-,N/A,,Clear,20,2012-10-12 22:53:00
7:53 PM,32.0,24.1,73,30.42,10.0,NNW,3.5,-,N/A,,Clear,330,2012-10-12 23:53:00
8:53 PM,28.9,23.0,78,30.44,10.0,NNE,4.6,-,N/A,,Clear,20,2012-10-13 00:53:00
10:53 PM,28.0,23.0,81,30.47,10.0,Calm,Calm,-,N/A,,Clear,0,2012-10-13 02:53:00
11:53 PM,27.0,21.9,81,30.47,10.0,WSW,4.6,-,N/A,,Clear,250,2012-10-13 03:53:00